KPHT/PHT METAR and TAF weather

Enter ICAO airport designator
Station Type Date Time Source
KPHT METAR 2018/12/13 09:15 UTC NOAA

KPHT 130915Z AUTO 15005KT 10SM FEW037 OVC048 07/05 A3004 RMK A01


Station Type Date Time Source
KPHT Decoded METAR 2018/12/13 09:15 UTC NOAA

Station name not available
Dec 13, 2018 - 04:15 AM EST / 2018.12.13 0915 UTC
Wind: from the SSE (150 degrees) at 6 MPH (5 KT):0
Visibility: 10 mile(s):0
Sky conditions: overcast
Temperature: 44 F (7 C)
Dew Point: 41 F (5 C)
Relative Humidity: 87%
Pressure (altimeter): 30.04 in. Hg (1017 hPa)
ob: KPHT 130915Z AUTO 15005KT 10SM FEW037 OVC048 07/05 A3004 RMK A01
cycle: 9

Station Type Date Time Source
KPHT TAF UTC NOAA

Error!


Example: see airport list